WetterOnline ( https://www.wetteronline.ch )

Wetter aktuell Neustadt i.H.

Aktuelles Wetter: Pelzerhaken/Neustadt i.H. (2m)

6-stündlich | Neueste Meldungen
Ortszeit Temperatur Wetter
Fr, 06.12. 19:00 6.5° C bewölkt
Fr, 06.12. 13:00 6.4° C Sprühregen
Fr, 06.12. 7:00 6.3° C bedeckt
Fr, 06.12. 1:00 3.9° C bewölkt
Do, 05.12. 19:00 4.7° C bedeckt
Do, 05.12. 13:00 5.5° C wolkenlos
Do, 05.12. 7:00 2.7° C wolkenlos
Do, 05.12. 1:00 4.5° C leicht bewölkt
Ortszeit Temperatur Wetter
Fr, 06.12. 21:00 7.1° C bedeckt
Fr, 06.12. 20:50 7.1° C bedeckt
Fr, 06.12. 20:40 7.0° C bedeckt
Fr, 06.12. 20:30 6.9° C bewölkt
Fr, 06.12. 20:20 6.9° C bewölkt
Fr, 06.12. 20:10 6.8° C Sprühregen
Fr, 06.12. 20:00 6.7° C Sprühregen
Fr, 06.12. 19:30 6.6° C bedeckt
Fr, 06.12. 19:00 6.5° C bewölkt
Ortszeit Relative Feuchte Sichtweite
Fr, 06.12. 19:00 97% 6 km
Fr, 06.12. 13:00 95% 3.9 km
Fr, 06.12. 7:00 95% 5.0 km
Fr, 06.12. 1:00 87% 8 km
Do, 05.12. 19:00 92% 8 km
Do, 05.12. 13:00 78% 14 km
Do, 05.12. 7:00 95% 5.0 km
Do, 05.12. 1:00 93% 8 km
Ortszeit Relative Feuchte Sichtweite
Fr, 06.12. 21:00 98% 4.8 km
Fr, 06.12. 20:50 98% -
Fr, 06.12. 20:40 97% -
Fr, 06.12. 20:30 98% 5.0 km
Fr, 06.12. 20:20 98% -
Fr, 06.12. 20:10 97% -
Fr, 06.12. 20:00 97% 4.9 km
Fr, 06.12. 19:30 97% 9 km
Fr, 06.12. 19:00 97% 6 km
Ortszeit Niederschlagsmenge Niederschlagsart
Fr, 06.12. 19:00 0.5 l/m2 in 12 Std. Regen
Fr, 06.12. 13:00 0.1 l/m2 in 6 Std. Regen
Fr, 06.12. 7:00 0.1 l/m2 in 12 Std. Regen
Fr, 06.12. 1:00 0.0 l/m2 in 6 Std. -
Do, 05.12. 19:00 0.0 l/m2 in 12 Std. -
Do, 05.12. 13:00 0.0 l/m2 in 6 Std. -
Do, 05.12. 7:00 0.0 l/m2 in 12 Std. -
Do, 05.12. 1:00 0.0 l/m2 in 6 Std. -
Ortszeit Niederschlagsmenge Niederschlagsart
Fr, 06.12. 21:00 0.1 l/m2 in 1 Std. Regen
Fr, 06.12. 20:50 keine Meldung -
Fr, 06.12. 20:40 keine Meldung -
Fr, 06.12. 20:30 0.1 l/m2 in 1 Std. Schneeregen
Fr, 06.12. 20:20 keine Meldung -
Fr, 06.12. 20:10 keine Meldung -
Fr, 06.12. 20:00 0.1 l/m2 in 1 Std. Sprühregen
Fr, 06.12. 19:30 0.1 l/m2 in 1 Std. Schnee
Fr, 06.12. 19:00 0.0 l/m2 in 1 Std. Regen
Ortszeit Stärke Spitze Richtung
km/h Bft. km/h Grad Sektor
Fr, 06.12. 19:00 33 5 54 220° SW
Fr, 06.12. 13:00 33 5 57 230° SW
Fr, 06.12. 7:00 36 5 65 230° SW
Fr, 06.12. 1:00 37 5 57 220° SW
Do, 05.12. 19:00 28 4 43 230° SW
Do, 05.12. 13:00 20 4 30 230° SW
Do, 05.12. 7:00 14 3 29 230° SW
Do, 05.12. 1:00 17 3 33 220° SW
Ortszeit Stärke Spitze Richtung
km/h Bft. km/h Grad Sektor
Fr, 06.12. 21:00 32 5 50 220° SW
Fr, 06.12. 20:50 32 5 - 220° SW
Fr, 06.12. 20:40 32 5 - 220° SW
Fr, 06.12. 20:30 33 5 48 220° SW
Fr, 06.12. 20:20 33 5 - 220° SW
Fr, 06.12. 20:10 35 5 - 210° SW
Fr, 06.12. 20:00 33 5 52 220° SW
Fr, 06.12. 19:30 35 5 50 210° SW
Fr, 06.12. 19:00 33 5 48 220° SW
Ortszeit Untergrenze Bedeckung Gattung
total tief tief mittel hoch
Fr, 06.12. 19:00 210 m 7/8 8/8 - - -
Fr, 06.12. 13:00 240 m 7/8 7/8 - - -
Fr, 06.12. 7:00 240 m 8/8 8/8 - - -
Fr, 06.12. 1:00 390 m 8/8 4/8 - - -
Do, 05.12. 19:00 240 m 8/8 8/8 - - -
Do, 05.12. 13:00 - 0/8 0/8 - - -
Do, 05.12. 7:00 - 0/8 0/8 - - -
Do, 05.12. 1:00 480 m 2/8 2/8 - - -
Ortszeit Bedeckungsgrad in Achtel und Wolkenuntergrenze
Fr, 06.12. 21:00 7(180m) 8(300m)
Fr, 06.12. 20:50 7(180m) 8(300m)
Fr, 06.12. 20:40 7(180m) 8(300m)
Fr, 06.12. 20:30 7(210m)
Fr, 06.12. 20:20 7(210m)
Fr, 06.12. 20:10 7(210m) 8(300m)
Fr, 06.12. 20:00 7(210m)
Fr, 06.12. 19:30 8(240m)
Fr, 06.12. 19:00 7(210m) 8(330m)
Ortszeit Luftdruck NN (hPa) Tendenz (hPa in 3 Std.)
Fr, 06.12. 19:00 1001 - 1,1
Fr, 06.12. 13:00 1004 - 1,0
Fr, 06.12. 7:00 1005 - 1,2
Fr, 06.12. 1:00 1008 - 3,3
Do, 05.12. 19:00 1014 - 1,4
Do, 05.12. 13:00 1017 - 0,8
Do, 05.12. 7:00 1018 - 0,5
Do, 05.12. 1:00 1019 - 0,9
Ortszeit Luftdruck NN (hPa) Tendenz (hPa in 3 Std.)
Fr, 06.12. 21:00 1000 - 1,5
Fr, 06.12. 20:50 1000 keine Meldung
Fr, 06.12. 20:40 1000 keine Meldung
Fr, 06.12. 20:30 1000 - 1,6
Fr, 06.12. 20:20 1000 keine Meldung
Fr, 06.12. 20:10 1000 keine Meldung
Fr, 06.12. 20:00 1000 - 1,3
Fr, 06.12. 19:30 1000 - 1,3
Fr, 06.12. 19:00 1001 - 1,1
Ortszeit Schneehöhe (cm)
Fr, 06.12. 19:00 0
Fr, 06.12. 13:00 0
Fr, 06.12. 7:00 0
Fr, 06.12. 1:00 0
Do, 05.12. 19:00 0
Do, 05.12. 13:00 0
Do, 05.12. 7:00 0
Do, 05.12. 1:00 0
Ortszeit Schneehöhe (cm)
Fr, 06.12. 21:00 0
Fr, 06.12. 20:50 0
Fr, 06.12. 20:40 0
Fr, 06.12. 20:30 0
Fr, 06.12. 20:20 0
Fr, 06.12. 20:10 0
Fr, 06.12. 20:00 0
Fr, 06.12. 19:30 0
Fr, 06.12. 19:00 0
Link zu dieser Seite / Seite empfehlen

Das Wetter in ...